createdAt,value
2019-01-17T00:01:33.809Z,80.50
2019-01-17T00:04:20.726Z,79.95
2019-01-17T00:07:07.666Z,79.22
2019-01-17T00:09:54.684Z,81.95
2019-01-17T00:12:41.803Z,79.35
2019-01-17T00:15:28.869Z,83.92
2019-01-17T00:18:15.825Z,76.90
2019-01-17T00:21:02.749Z,74.10
2019-01-17T00:23:49.733Z,74.87
2019-01-17T00:26:36.671Z,71.07
2019-01-17T00:29:23.565Z,72.80
2019-01-17T00:32:10.501Z,75.83
2019-01-17T00:34:57.486Z,76.87
2019-01-17T00:37:44.539Z,73.10
2019-01-17T00:40:31.566Z,69.83
2019-01-17T00:43:18.586Z,68.87
2019-01-17T00:46:05.579Z,70.13
2019-01-17T00:48:52.458Z,69.57
2019-01-17T00:51:39.420Z,69.40
2019-01-17T00:54:26.373Z,68.10
2019-01-17T00:57:13.333Z,72.90
2019-01-17T01:00:00.224Z,69.40
2019-01-17T01:02:47.241Z,68.47
2019-01-17T01:05:34.158Z,71.20
2019-01-17T01:08:21.069Z,73.47
2019-01-17T01:11:08.117Z,68.97
2019-01-17T01:13:55.076Z,70.80
2019-01-17T01:16:44.004Z,70.53
2019-01-17T01:19:30.981Z,73.77
2019-01-17T01:22:17.873Z,69.67
2019-01-17T01:25:04.829Z,92.77
2019-01-17T01:27:51.826Z,85.77
2019-01-17T01:30:38.821Z,83.20
2019-01-17T01:33:25.714Z,83.87
2019-01-17T01:36:12.748Z,77.10
2019-01-17T01:38:59.786Z,80.60
2019-01-17T01:41:46.675Z,77.33
2019-01-17T01:44:33.625Z,78.20
2019-01-17T01:47:20.932Z,79.77
2019-01-17T01:50:07.809Z,84.43
2019-01-17T01:52:54.774Z,87.87
2019-01-17T01:55:41.713Z,81.57
2019-01-17T01:58:09.704Z,72.27
2019-01-17T02:00:37.684Z,77.07
2019-01-17T02:03:05.599Z,76.90
2019-01-17T02:05:33.864Z,78.93
2019-01-17T02:08:01.775Z,79.90
2019-01-17T02:10:29.714Z,70.43
2019-01-17T02:12:57.802Z,69.10
2019-01-17T02:15:25.772Z,67.80
2019-01-17T02:17:53.721Z,66.70
2019-01-17T02:20:21.692Z,67.70
2019-01-17T02:22:49.692Z,71.20
2019-01-17T02:25:17.629Z,67.63
2019-01-17T02:27:45.615Z,70.00
2019-01-17T02:30:14.017Z,76.10
2019-01-17T02:32:41.987Z,85.57
2019-01-17T02:35:09.914Z,82.10
2019-01-17T02:37:37.934Z,88.03
2019-01-17T02:40:06.254Z,78.53
2019-01-17T02:42:34.246Z,76.90
2019-01-17T02:45:02.223Z,76.10
2019-01-17T02:47:30.182Z,81.03
2019-01-17T02:49:58.157Z,86.57
2019-01-17T02:52:26.112Z,82.40
2019-01-17T02:54:54.109Z,91.13
2019-01-17T02:57:22.164Z,88.97
2019-01-17T02:59:50.133Z,89.43
2019-01-17T03:05:00.231Z,85.17
2019-01-17T03:07:28.192Z,83.20
2019-01-17T03:09:56.172Z,85.25
2019-01-17T03:12:24.110Z,82.75
2019-01-17T03:14:52.087Z,80.75
2019-01-17T03:17:20.129Z,77.63
2019-01-17T03:19:48.141Z,76.87
2019-01-17T03:22:16.093Z,76.73
2019-01-17T03:24:44.043Z,83.30
2019-01-17T03:27:12.040Z,79.47
2019-01-17T03:29:40.005Z,78.47
2019-01-17T03:32:07.951Z,85.10
2019-01-17T03:34:35.968Z,77.15
2019-01-17T03:37:04.014Z,78.57
2019-01-17T03:39:31.979Z,78.80
2019-01-17T03:41:59.980Z,83.20
2019-01-17T03:44:27.953Z,76.53
2019-01-17T03:46:56.018Z,78.83
2019-01-17T03:49:23.975Z,80.77
2019-01-17T03:51:51.940Z,76.17
2019-01-17T03:54:19.968Z,78.10
2019-01-17T03:56:47.978Z,81.90
2019-01-17T03:59:16.036Z,78.73
2019-01-17T04:01:44.013Z,76.00
2019-01-17T04:04:12.017Z,76.40
2019-01-17T04:06:39.939Z,77.80
2019-01-17T04:09:07.953Z,76.43
2019-01-17T04:11:35.893Z,77.43
2019-01-17T04:14:03.954Z,74.90
2019-01-17T04:16:31.908Z,76.63
2019-01-17T04:18:59.902Z,78.60
2019-01-17T04:21:27.846Z,74.07
2019-01-17T04:23:55.824Z,76.70
2019-01-17T04:26:23.801Z,77.60
2019-01-17T04:28:51.752Z,76.20
2019-01-17T04:31:19.738Z,80.67
2019-01-17T04:33:47.803Z,79.13
2019-01-17T04:36:15.759Z,79.90
2019-01-17T04:38:43.779Z,79.30
2019-01-17T04:41:11.699Z,75.27
2019-01-17T04:43:39.659Z,73.03
2019-01-17T04:48:49.744Z,79.37
2019-01-17T04:51:17.739Z,79.63
2019-01-17T04:53:45.672Z,76.37
2019-01-17T04:56:13.640Z,78.47
2019-01-17T04:58:41.632Z,74.57
2019-01-17T05:01:09.687Z,80.07
2019-01-17T05:03:37.692Z,77.97
2019-01-17T05:06:05.622Z,81.90
2019-01-17T05:08:33.670Z,78.07
2019-01-17T05:11:01.615Z,77.63
2019-01-17T05:13:29.524Z,77.20
2019-01-17T05:15:57.522Z,83.20
2019-01-17T05:18:25.480Z,79.23
2019-01-17T05:20:53.450Z,75.60
2019-01-17T05:23:21.402Z,75.40
2019-01-17T05:25:49.396Z,84.43
2019-01-17T05:28:17.368Z,77.23
2019-01-17T05:30:45.335Z,72.93
2019-01-17T05:33:13.273Z,75.17
2019-01-17T05:38:23.380Z,76.97
2019-01-17T05:40:51.357Z,77.00
2019-01-17T05:43:19.423Z,72.50
2019-01-17T05:45:47.361Z,80.77
2019-01-17T05:48:15.344Z,95.67
2019-01-17T05:50:43.331Z,75.00
2019-01-17T05:53:11.380Z,75.23
2019-01-17T05:55:39.339Z,75.97
2019-01-17T05:58:07.328Z,78.87
2019-01-17T06:00:35.309Z,69.60
2019-01-17T06:03:03.285Z,69.03
2019-01-17T06:05:31.246Z,69.70
2019-01-17T06:07:59.204Z,74.60
2019-01-17T06:10:27.185Z,69.90
2019-01-17T06:12:55.231Z,73.63
2019-01-17T06:15:24.113Z,74.90
2019-01-17T06:17:52.095Z,76.70
2019-01-17T06:23:22.671Z,68.87
2019-01-17T06:25:50.603Z,69.60
2019-01-17T06:28:18.583Z,70.87
2019-01-17T06:30:46.646Z,76.43
2019-01-17T06:33:14.632Z,81.53
2019-01-17T06:35:42.584Z,71.47
2019-01-17T06:38:10.573Z,71.53
2019-01-17T06:40:38.523Z,70.23
2019-01-17T06:43:06.491Z,71.03
2019-01-17T06:45:34.458Z,73.40
2019-01-17T06:48:02.429Z,71.40
2019-01-17T06:50:30.411Z,75.30
2019-01-17T06:52:58.371Z,80.03
2019-01-17T06:55:26.356Z,73.97
2019-01-17T06:57:54.298Z,74.30
2019-01-17T07:00:22.270Z,74.43
2019-01-17T07:02:50.252Z,77.07
2019-01-17T07:05:18.216Z,72.67
2019-01-17T07:07:46.188Z,76.07
2019-01-17T07:10:14.893Z,72.20
2019-01-17T07:12:42.846Z,71.13
2019-01-17T07:15:10.809Z,74.83
2019-01-17T07:17:38.765Z,83.87
2019-01-17T07:20:07.390Z,76.80
2019-01-17T07:22:35.336Z,72.60
2019-01-17T07:25:03.321Z,74.07
2019-01-17T07:27:31.292Z,80.20
2019-01-17T07:29:59.259Z,73.07
2019-01-17T07:32:27.268Z,80.50
2019-01-17T07:34:55.250Z,77.50
2019-01-17T07:37:23.246Z,74.53
2019-01-17T07:39:51.251Z,71.87
2019-01-17T07:42:19.170Z,72.90
2019-01-17T07:44:47.146Z,78.90
2019-01-17T07:47:15.136Z,72.20
2019-01-17T07:49:43.091Z,77.90
2019-01-17T07:52:11.067Z,74.30
2019-01-17T07:54:39.016Z,73.80
2019-01-17T07:57:07.007Z,72.83
2019-01-17T07:59:34.991Z,75.57
2019-01-17T08:02:02.929Z,73.73
2019-01-17T08:04:30.888Z,70.57
2019-01-17T08:06:58.793Z,69.10
2019-01-17T08:09:26.727Z,75.87
2019-01-17T08:11:54.681Z,77.00
2019-01-17T08:14:22.790Z,73.10
2019-01-17T08:16:50.765Z,77.40
2019-01-17T08:19:18.734Z,84.93
2019-01-17T08:21:46.703Z,78.47
2019-01-17T08:24:14.645Z,80.27
2019-01-17T08:26:42.638Z,82.10
2019-01-17T08:29:10.640Z,81.20
2019-01-17T08:31:38.543Z,75.47
2019-01-17T08:34:06.440Z,80.30
2019-01-17T08:36:34.360Z,82.53
2019-01-17T08:39:02.280Z,77.43
2019-01-17T08:41:30.231Z,89.77
2019-01-17T08:43:58.307Z,77.30
2019-01-17T08:46:26.299Z,79.27
2019-01-17T08:48:54.259Z,83.50
2019-01-17T08:51:22.240Z,81.73
2019-01-17T08:53:50.176Z,82.77
2019-01-17T08:56:18.182Z,82.50
2019-01-17T08:58:46.118Z,88.17
2019-01-17T09:01:14.110Z,79.93
2019-01-17T09:03:42.068Z,85.57
2019-01-17T09:06:10.046Z,89.73
2019-01-17T09:08:38.032Z,89.50
2019-01-17T09:11:06.079Z,88.80
2019-01-17T09:13:34.127Z,103.97
2019-01-17T09:16:02.108Z,90.97
2019-01-17T09:18:30.101Z,119.70
2019-01-17T09:20:58.150Z,88.40
2019-01-17T09:23:26.033Z,79.23
2019-01-17T09:25:53.986Z,85.17
2019-01-17T09:28:21.987Z,83.93
2019-01-17T09:30:49.934Z,89.60
2019-01-17T09:33:17.916Z,83.80
2019-01-17T09:35:45.885Z,79.47
2019-01-17T09:38:13.840Z,84.57
2019-01-17T09:40:41.794Z,83.87
2019-01-17T09:43:09.775Z,81.37
2019-01-17T09:45:37.789Z,78.77
2019-01-17T09:48:05.852Z,86.47
2019-01-17T09:50:33.877Z,82.00
2019-01-17T09:53:01.881Z,83.30
2019-01-17T09:55:29.830Z,89.73
2019-01-17T09:57:57.798Z,88.03
2019-01-17T10:03:08.780Z,80.30
2019-01-17T10:05:36.817Z,79.90
2019-01-17T10:08:04.814Z,83.70
2019-01-17T10:10:32.782Z,87.37
2019-01-17T10:13:01.074Z,77.83
2019-01-17T10:15:48.005Z,74.67
2019-01-17T10:18:35.054Z,78.87
2019-01-17T10:21:22.050Z,81.60
2019-01-17T10:24:09.098Z,81.13
2019-01-17T10:26:40.305Z,77.70
2019-01-17T10:29:21.915Z,76.87
2019-01-17T10:32:09.016Z,87.93
2019-01-17T10:34:55.954Z,77.10
2019-01-17T10:37:43.104Z,81.70
2019-01-17T10:40:30.050Z,76.13
2019-01-17T10:43:02.731Z,73.57
2019-01-17T10:45:49.768Z,76.53
2019-01-17T10:48:36.797Z,75.30
2019-01-17T10:51:23.732Z,72.30
2019-01-17T10:54:10.824Z,74.43
2019-01-17T10:56:57.771Z,69.80
2019-01-17T10:59:44.789Z,69.97
2019-01-17T11:02:31.805Z,70.17
2019-01-17T11:05:18.787Z,76.23
2019-01-17T11:08:05.936Z,78.00
2019-01-17T11:10:52.864Z,83.63
2019-01-17T11:13:39.936Z,83.60
2019-01-17T11:16:26.959Z,71.47
2019-01-17T11:19:13.927Z,75.53
2019-01-17T11:21:47.948Z,87.03
2019-01-17T11:24:34.888Z,79.40
2019-01-17T11:27:21.831Z,76.50
2019-01-17T11:30:08.831Z,77.87
2019-01-17T11:32:55.854Z,74.67
2019-01-17T11:35:42.841Z,72.97
2019-01-17T11:38:29.780Z,74.40
2019-01-17T11:44:00.016Z,79.07
2019-01-17T11:46:47.024Z,73.10
2019-01-17T11:49:34.237Z,81.03
2019-01-17T11:52:21.151Z,71.37
2019-01-17T11:55:08.168Z,75.30
2019-01-17T11:57:55.094Z,72.97
2019-01-17T12:00:42.095Z,77.73
2019-01-17T12:03:29.039Z,75.37
2019-01-17T12:05:56.971Z,77.73
2019-01-17T12:08:24.904Z,74.90
2019-01-17T12:10:52.858Z,78.10
2019-01-17T12:13:20.772Z,75.87
2019-01-17T12:15:48.723Z,80.53
2019-01-17T12:18:16.758Z,76.97
2019-01-17T12:20:45.049Z,74.10
2019-01-17T12:23:13.013Z,94.47
2019-01-17T12:25:40.980Z,79.53
2019-01-17T12:28:08.954Z,78.13
2019-01-17T12:30:36.909Z,80.27
2019-01-17T12:33:04.902Z,72.90
2019-01-17T12:35:34.181Z,77.50
2019-01-17T12:38:02.472Z,77.57
2019-01-17T12:40:30.503Z,73.67
2019-01-17T12:42:58.539Z,73.97
2019-01-17T12:45:26.845Z,75.40
2019-01-17T12:47:54.779Z,75.93
2019-01-17T12:50:22.732Z,71.90
2019-01-17T12:52:50.687Z,72.47
2019-01-17T12:55:18.664Z,77.03
2019-01-17T12:57:46.603Z,73.37
2019-01-17T13:00:33.539Z,78.17
2019-01-17T13:03:01.443Z,102.10
2019-01-17T13:05:29.353Z,95.80
2019-01-17T13:07:57.250Z,79.43
2019-01-17T13:10:26.668Z,75.67
2019-01-17T13:12:56.525Z,80.87
2019-01-17T13:15:25.823Z,80.90
2019-01-17T13:17:55.688Z,79.73
2019-01-17T13:20:25.191Z,78.30
2019-01-17T13:22:54.853Z,74.57
2019-01-17T13:25:22.862Z,73.63
2019-01-17T13:27:50.811Z,75.97
2019-01-17T13:30:19.845Z,73.30
2019-01-17T13:32:47.824Z,76.40
2019-01-17T13:35:16.263Z,82.63
2019-01-17T13:37:44.229Z,74.30
2019-01-17T13:43:16.245Z,75.90
2019-01-17T13:45:44.189Z,78.90
2019-01-17T13:48:12.163Z,73.60
2019-01-17T13:50:40.119Z,75.93
2019-01-17T13:53:08.145Z,76.13
2019-01-17T13:55:36.254Z,72.50
2019-01-17T13:58:04.185Z,80.07
2019-01-17T14:00:32.195Z,80.53
2019-01-17T14:03:00.185Z,86.63
2019-01-17T14:05:28.140Z,82.67
2019-01-17T14:07:56.113Z,84.53
2019-01-17T14:10:24.097Z,83.50
2019-01-17T14:12:52.056Z,79.43
2019-01-17T14:18:27.857Z,78.63
2019-01-17T14:20:53.411Z,82.00
2019-01-17T14:23:21.319Z,76.60
2019-01-17T14:25:49.278Z,81.40
2019-01-17T14:28:17.268Z,76.23
2019-01-17T14:33:32.397Z,75.37
2019-01-17T14:36:00.283Z,70.47
2019-01-17T14:38:28.176Z,79.33
2019-01-17T14:40:56.136Z,73.37
2019-01-17T14:43:24.109Z,73.87
2019-01-17T14:45:52.180Z,72.27
2019-01-17T14:48:20.127Z,86.23
2019-01-17T14:50:48.018Z,73.77
2019-01-17T14:53:15.983Z,69.57
2019-01-17T14:55:43.955Z,75.30
2019-01-17T14:58:11.944Z,73.07
2019-01-17T15:00:39.873Z,71.33
2019-01-17T15:03:07.785Z,71.00
2019-01-17T15:05:35.707Z,86.03
2019-01-17T15:08:03.794Z,70.67
2019-01-17T15:10:33.419Z,68.57
2019-01-17T15:13:01.345Z,84.13
2019-01-17T15:15:29.202Z,70.50
2019-01-17T15:17:57.134Z,79.60
2019-01-17T15:26:09.857Z,75.37
2019-01-17T15:28:37.827Z,74.83
2019-01-17T15:31:05.791Z,78.40
2019-01-17T15:33:33.775Z,70.70
2019-01-17T15:36:01.736Z,67.93
2019-01-17T15:38:29.695Z,72.00
2019-01-17T15:40:57.679Z,81.33
2019-01-17T15:46:08.372Z,70.10
2019-01-17T15:48:36.443Z,68.10
2019-01-17T15:51:04.391Z,69.60
2019-01-17T15:53:32.374Z,69.93
2019-01-17T15:56:00.327Z,69.70
2019-01-17T15:58:28.315Z,69.50
2019-01-17T16:00:56.268Z,69.90
2019-01-17T16:03:24.222Z,66.87
2019-01-17T16:05:52.159Z,66.77
2019-01-17T16:08:20.058Z,66.17
2019-01-17T16:10:47.951Z,64.77
2019-01-17T16:13:16.055Z,72.50
2019-01-17T16:15:44.099Z,68.80
2019-01-17T16:18:12.074Z,66.23
2019-01-17T16:20:40.028Z,66.00
2019-01-17T16:23:08.016Z,65.47
2019-01-17T16:25:35.965Z,65.20
2019-01-17T16:28:03.952Z,64.57
2019-01-17T16:30:32.517Z,65.97
2019-01-17T16:33:00.464Z,66.30
2019-01-17T16:35:28.459Z,66.97
2019-01-17T16:37:56.429Z,66.47
2019-01-17T16:40:24.514Z,66.43
2019-01-17T16:42:52.472Z,69.50
2019-01-17T16:48:02.476Z,66.03
2019-01-17T16:50:30.405Z,67.20
2019-01-17T16:52:58.359Z,66.50
2019-01-17T16:55:26.369Z,66.10
2019-01-17T16:57:54.339Z,70.10
2019-01-17T17:00:26.172Z,71.40
2019-01-17T17:02:54.186Z,67.87
2019-01-17T17:05:22.101Z,66.13
2019-01-17T17:07:50.072Z,68.37
2019-01-17T17:10:18.029Z,67.70
2019-01-17T17:12:46.067Z,69.73
2019-01-17T17:15:34.640Z,67.73
2019-01-17T17:18:02.588Z,68.67
2019-01-17T17:20:30.605Z,66.07
2019-01-17T17:22:58.556Z,69.30
2019-01-17T17:25:26.598Z,67.97
2019-01-17T17:27:55.709Z,72.93
2019-01-17T17:30:25.269Z,69.60
2019-01-17T17:32:53.227Z,68.20
2019-01-17T17:35:21.165Z,66.60
2019-01-17T17:37:49.035Z,67.13
2019-01-17T17:40:21.090Z,65.97
2019-01-17T17:42:49.187Z,65.70
2019-01-17T17:45:17.181Z,65.80
2019-01-17T17:47:45.209Z,67.40
2019-01-17T17:52:57.357Z,73.20
2019-01-17T17:55:25.297Z,69.17
2019-01-17T17:57:53.312Z,74.30
2019-01-17T18:00:41.171Z,74.87
2019-01-17T18:03:09.281Z,76.03
2019-01-17T18:05:37.308Z,74.50
2019-01-17T18:08:05.355Z,71.00
2019-01-17T18:10:33.374Z,73.83
2019-01-17T18:13:01.380Z,72.10
2019-01-17T18:15:29.347Z,76.60
2019-01-17T18:17:57.346Z,71.50
2019-01-17T18:20:25.292Z,72.47
2019-01-17T18:22:53.230Z,74.00
2019-01-17T18:25:21.112Z,69.47
2019-01-17T18:27:49.134Z,72.00
2019-01-17T18:30:20.867Z,73.33
2019-01-17T18:32:48.834Z,73.23
2019-01-17T18:35:16.784Z,77.33
2019-01-17T18:37:44.790Z,77.30
2019-01-17T18:40:33.711Z,73.87
2019-01-17T18:43:01.960Z,71.33
2019-01-17T18:45:48.866Z,76.57
2019-01-17T18:50:55.646Z,81.63
2019-01-17T18:53:23.573Z,71.27
2019-01-17T18:56:10.519Z,72.10
2019-01-17T18:58:38.586Z,70.70
2019-01-17T19:01:07.486Z,72.30
2019-01-17T19:03:35.657Z,73.37
2019-01-17T19:08:52.256Z,85.83
2019-01-17T19:11:20.189Z,83.00
2019-01-17T19:13:48.198Z,82.70
2019-01-17T19:16:30.308Z,84.20
2019-01-17T19:18:58.317Z,83.70
2019-01-17T19:21:26.313Z,83.87
2019-01-17T19:23:54.263Z,86.17
2019-01-17T19:26:22.262Z,82.07
2019-01-17T19:28:50.231Z,87.17
2019-01-17T19:31:18.277Z,81.90
2019-01-17T19:33:46.290Z,81.13
2019-01-17T19:36:14.531Z,90.17
2019-01-17T19:38:42.515Z,86.63
2019-01-17T19:41:10.468Z,81.10
2019-01-17T19:46:20.542Z,89.13
2019-01-17T19:48:48.566Z,79.63
2019-01-17T19:51:16.495Z,82.97
2019-01-17T19:53:44.547Z,81.90
2019-01-17T19:56:12.498Z,83.23
2019-01-17T19:58:40.395Z,81.70
2019-01-17T20:01:08.577Z,76.53
2019-01-17T20:03:36.657Z,85.07
2019-01-17T20:06:25.111Z,83.47
2019-01-17T20:08:53.074Z,80.73
2019-01-17T20:11:20.996Z,86.60
2019-01-17T20:13:49.247Z,77.83
2019-01-17T20:16:17.172Z,77.70
2019-01-17T20:18:45.158Z,80.83
2019-01-17T20:21:13.184Z,80.20
2019-01-17T20:23:41.463Z,83.67
2019-01-17T20:26:09.441Z,89.90
2019-01-17T20:28:37.403Z,85.03
2019-01-17T20:31:05.575Z,80.40
2019-01-17T20:36:16.187Z,78.20
2019-01-17T20:38:44.165Z,81.87
2019-01-17T20:41:12.090Z,79.40
2019-01-17T20:43:40.072Z,82.77
2019-01-17T20:46:08.074Z,86.13
2019-01-17T20:48:36.149Z,80.17
2019-01-17T20:51:04.109Z,80.97
2019-01-17T20:53:32.180Z,82.60
2019-01-17T20:56:00.118Z,110.37
2019-01-17T20:58:28.120Z,94.90
2019-01-17T21:01:15.237Z,83.73
2019-01-17T21:03:43.233Z,79.47
2019-01-17T21:06:11.267Z,83.53
2019-01-17T21:08:39.216Z,82.30
2019-01-17T21:11:07.223Z,84.87
2019-01-17T21:13:35.146Z,80.17
2019-01-17T21:16:03.439Z,81.23
2019-01-17T21:21:11.209Z,81.37
2019-01-17T21:23:39.216Z,87.90
2019-01-17T21:26:07.201Z,99.80
2019-01-17T21:28:35.188Z,149.23
2019-01-17T21:31:03.136Z,85.87
2019-01-17T21:33:31.109Z,80.03
2019-01-17T21:35:59.067Z,92.83
2019-01-17T21:38:27.050Z,81.20
2019-01-17T21:40:55.021Z,79.17
2019-01-17T21:43:22.958Z,84.70
2019-01-17T21:45:50.861Z,84.23
2019-01-17T21:48:18.806Z,74.50
2019-01-17T21:50:46.790Z,76.30
2019-01-17T21:53:14.763Z,70.43
2019-01-17T21:55:42.760Z,74.70
2019-01-17T21:58:10.690Z,80.30
2019-01-17T22:00:38.683Z,80.33
2019-01-17T22:03:06.669Z,90.10
2019-01-17T22:05:34.830Z,83.87
2019-01-17T22:08:02.777Z,83.53
2019-01-17T22:10:30.723Z,78.70
2019-01-17T22:12:58.719Z,83.57
2019-01-17T22:15:26.772Z,81.03
2019-01-17T22:17:54.912Z,87.57
2019-01-17T22:20:23.048Z,76.00
2019-01-17T22:25:53.631Z,76.83
2019-01-17T22:28:21.536Z,81.83
2019-01-17T22:30:49.514Z,68.77
2019-01-17T22:33:17.486Z,65.60
2019-01-17T22:35:45.436Z,64.90
2019-01-17T22:38:13.431Z,65.00
2019-01-17T22:40:41.442Z,67.60
2019-01-17T22:43:09.476Z,66.97
2019-01-17T22:45:37.457Z,65.60
2019-01-17T22:48:05.380Z,66.60
2019-01-17T22:50:33.271Z,66.97
2019-01-17T22:53:01.217Z,71.17
2019-01-17T22:55:29.238Z,65.30
2019-01-17T22:57:57.165Z,67.37
2019-01-17T23:00:49.128Z,66.77
2019-01-17T23:03:17.267Z,68.70
2019-01-17T23:05:45.324Z,66.70
2019-01-17T23:08:13.218Z,67.10
2019-01-17T23:10:41.175Z,69.90
2019-01-17T23:13:09.142Z,65.13
2019-01-17T23:15:37.431Z,66.93
2019-01-17T23:20:52.567Z,65.30
2019-01-17T23:23:20.478Z,65.87
2019-01-17T23:25:48.438Z,66.47
2019-01-17T23:28:16.461Z,66.60
2019-01-17T23:30:44.388Z,66.50
2019-01-17T23:33:12.369Z,66.70
2019-01-17T23:35:40.340Z,68.70
2019-01-17T23:38:08.316Z,67.40
2019-01-17T23:40:36.352Z,67.97
2019-01-17T23:43:04.323Z,67.77
2019-01-17T23:45:32.320Z,67.77
2019-01-17T23:48:00.282Z,66.27
2019-01-17T23:50:28.251Z,66.33
2019-01-17T23:52:56.227Z,66.33
2019-01-17T23:55:24.203Z,68.20
2019-01-17T23:57:52.145Z,66.47
